KCVG/CVG METAR and TAF weather

Enter ICAO airport designator
Station Type Date Time Source
KCVG METAR 2022/01/25 04:52 UTC NOAA

KCVG 250452Z 32008KT 3SM -DZ BR OVC008 00/M02 A2987 RMK AO2 SFC VIS 5 RAB29E35DZB35 SLP119 P0000 T00001022 400441100


Station Type Date Time Source
KCVG Decoded METAR 2022/01/25 04:52 UTC NOAA

CINCINNATI/NORTHERN KY INTERNATIONAL , KY, United States (KCVG) 39-03N 084-40W 269M
Jan 24, 2022 - 11:52 PM EST / 2022.01.25 0452 UTC
Wind: from the NW (320 degrees) at 9 MPH (8 KT):0
Visibility: 3 mile(s):0
Sky conditions: overcast
Weather: light drizzle; mist
Precipitation last hour: A trace
Temperature: 32.0 F (0.0 C)
Windchill: 24 F (-4 C):1
Dew Point: 28.0 F (-2.2 C)
Relative Humidity: 85%
Pressure (altimeter): 29.87 in. Hg (1011 hPa)
ob: KCVG 250452Z 32008KT 3SM -DZ BR OVC008 00/M02 A2987 RMK AO2 SFC VIS 5 RAB29E35DZB35 SLP119 P0000 T00001022 400441100
cycle: 5

Station Type Date Time Source
KCVG TAF 2022/01/24 21:42 UTC NOAA

TAF
AMD KCVG 242041Z 2421/2524 25012G20KT 6SM -RA BR OVC025
FM242200 26012G20KT 4SM -RA BR OVC015
FM250000 25010KT 4SM BR VCSH OVC006
FM250300 28010KT 4SM BR VCSH OVC006
FM250800 33008KT P6SM BKN012
FM251800 35008KT P6SM BKN020

Example: see airport list